Time;durP1;ratioP1;P1;durP2;ratioP2;P2;SDS_P1;SDS_P2;PMS_P1;PMS_P2;Temp;Humidity;BMP_temperature;BMP_pressure;BME280_temperature;BME280_humidity;BME280_pressure;Samples;Min_cycle;Max_cycle;Signal;HPM_P1;HPM_P2
2023/03/17 00:00:36;;;;;;;19.83;12.05;;;;;;;1.17;90.80;95423.16;5031971;28;20119;-78
2023/03/17 00:03:03;;;;;;;17.58;11.23;;;;;;;0.92;90.37;95377.88;5014300;28;20037;-78
2023/03/17 00:05:32;;;;;;;21.23;12.32;;;;;;;1.05;90.69;95424.84;5031902;28;20033;-78
2023/03/17 00:08:04;;;;;;;18.58;10.30;;;;;;;0.99;91.45;95430.09;5030537;28;20407;-78
2023/03/17 00:10:29;;;;;;;16.50;10.93;;;;;;;0.54;91.58;95330.06;4998421;28;20132;-78
2023/03/17 00:12:55;;;;;;;16.30;10.07;;;;;;;1.08;91.28;95413.94;5014404;28;20120;-79
2023/03/17 00:15:21;;;;;;;19.67;11.07;;;;;;;1.09;91.07;95427.81;5030908;28;20497;-79
2023/03/17 00:17:48;;;;;;;19.02;10.93;;;;;;;0.76;90.69;95373.16;5032160;28;20033;-79
2023/03/17 00:20:26;;;;;;;16.70;10.98;;;;;;;0.62;91.40;95348.09;5030071;28;20128;-79
2023/03/17 00:22:54;;;;;;;16.70;11.13;;;;;;;1.04;91.33;95427.66;5032121;28;20112;-79
2023/03/17 00:25:24;;;;;;;16.08;10.25;;;;;;;0.83;91.82;95433.97;5030901;28;20025;-79
2023/03/17 00:27:50;;;;;;;18.35;11.35;;;;;;;0.90;92.76;95426.91;5031725;28;20041;-79
2023/03/17 00:30:16;;;;;;;17.40;11.25;;;;;;;0.69;92.33;95388.00;5029180;28;20491;-79
2023/03/17 00:32:44;;;;;;;19.15;11.70;;;;;;;0.82;92.15;95436.78;5029061;28;20060;-79
2023/03/17 00:35:24;;;;;;;21.88;11.45;;;;;;;0.05;92.60;95318.41;5028709;28;20522;-79
2023/03/17 00:37:52;;;;;;;16.75;10.60;;;;;;;0.51;93.10;95378.25;5032003;28;20045;-79
2023/03/17 00:40:24;;;;;;;18.55;11.27;;;;;;;0.68;92.79;95402.09;5030183;28;20044;-79
2023/03/17 00:42:51;;;;;;;18.58;11.38;;;;;;;0.97;92.62;95430.28;5032130;28;20125;-79
2023/03/17 00:45:20;;;;;;;16.88;10.70;;;;;;;1.06;92.73;95425.63;5029291;28;20037;-79
2023/03/17 00:47:46;;;;;;;17.58;10.80;;;;;;;1.11;92.70;95420.59;5029672;28;20034;-79
2023/03/17 00:50:15;;;;;;;21.75;11.48;;;;;;;1.04;91.86;95443.31;5031653;28;20033;-79
2023/03/17 00:52:42;;;;;;;18.83;11.63;;;;;;;1.08;92.28;95392.25;5031141;28;20033;-79
2023/03/17 00:55:08;;;;;;;17.33;11.00;;;;;;;0.76;92.14;95410.47;5031198;28;20468;-79
2023/03/17 00:57:38;;;;;;;22.48;12.40;;;;;;;0.59;92.31;95377.22;5013354;28;20396;-79
2023/03/17 01:00:16;;;;;;;16.77;10.57;;;;;;;0.74;92.32;95349.06;5029841;28;20517;-79
2023/03/17 01:02:42;;;;;;;16.73;10.40;;;;;;;0.42;91.29;95296.00;5013434;28;20038;-78
2023/03/17 01:05:09;;;;;;;17.70;11.35;;;;;;;0.75;91.21;95384.59;5031381;28;20041;-78
2023/03/17 01:07:36;;;;;;;16.42;10.82;;;;;;;-0.02;92.01;95300.16;5030017;28;20044;-78
2023/03/17 01:10:01;;;;;;;18.92;11.50;;;;;;;1.08;92.38;95437.47;5030907;28;20051;-78
2023/03/17 01:12:28;;;;;;;18.42;11.73;;;;;;;0.44;92.16;95363.63;5029760;28;20160;-78
2023/03/17 01:14:53;;;;;;;16.67;10.93;;;;;;;1.10;92.59;95438.06;5029562;28;20045;-78
2023/03/17 01:17:19;;;;;;;17.30;11.85;;;;;;;0.64;92.11;95399.09;5030742;28;20101;-78
2023/03/17 01:19:46;;;;;;;18.02;11.25;;;;;;;0.76;92.52;95444.41;5012584;28;20091;-78
2023/03/17 01:22:12;;;;;;;20.17;11.75;;;;;;;0.81;92.96;95449.03;5030905;28;20411;-78
2023/03/17 01:24:38;;;;;;;16.58;11.45;;;;;;;0.38;93.13;95370.47;5030862;28;20040;-78
2023/03/17 01:27:05;;;;;;;20.40;12.10;;;;;;;-0.14;92.74;95257.47;5030421;28;20072;-78
2023/03/17 01:29:32;;;;;;;18.08;11.23;;;;;;;0.12;91.98;95276.66;5029513;28;20040;-78
2023/03/17 01:31:58;;;;;;;15.65;10.40;;;;;;;1.17;91.23;95441.44;5030743;28;20057;-78
2023/03/17 01:34:24;;;;;;;20.90;12.25;;;;;;;1.22;91.37;95440.03;5013230;28;20038;-78
2023/03/17 01:36:49;;;;;;;16.60;11.02;;;;;;;0.41;90.93;95336.13;5027435;28;20578;-78
2023/03/17 01:39:15;;;;;;;18.73;10.95;;;;;;;0.40;91.56;95360.63;5029075;28;20482;-78
2023/03/17 01:41:41;;;;;;;15.93;11.15;;;;;;;1.06;91.56;95444.72;5030673;28;20033;-78
2023/03/17 01:44:14;;;;;;;21.33;10.18;;;;;;;0.77;91.73;95396.41;5030381;28;20098;-78
2023/03/17 01:46:39;;;;;;;18.15;10.35;;;;;;;0.86;91.65;95390.97;5012722;28;20040;-78
2023/03/17 01:49:20;;;;;;;21.35;10.55;;;;;;;0.96;91.76;95439.13;5010471;28;20029;-78
2023/03/17 01:51:46;;;;;;;19.17;11.03;;;;;;;1.31;92.57;95447.41;5012543;28;20044;-78
2023/03/17 01:54:17;;;;;;;15.52;10.57;;;;;;;1.18;91.85;95429.19;5030573;28;20748;-79
2023/03/17 01:56:48;;;;;;;16.38;10.32;;;;;;;0.57;90.86;95360.97;5030681;28;20048;-79
2023/03/17 01:59:22;;;;;;;15.70;10.10;;;;;;;0.53;91.56;95381.47;5030753;28;20439;-79
2023/03/17 02:01:51;;;;;;;15.63;9.75;;;;;;;1.10;91.44;95450.31;5014130;28;20426;-79
2023/03/17 02:04:18;;;;;;;14.43;9.43;;;;;;;1.10;91.58;95456.34;5029992;28;20080;-79
2023/03/17 02:06:45;;;;;;;14.43;9.65;;;;;;;0.34;90.99;95359.63;5030166;28;20068;-79
2023/03/17 02:09:11;;;;;;;13.63;9.15;;;;;;;0.47;90.89;95377.06;5028796;28;20503;-79
2023/03/17 02:11:37;;;;;;;15.60;9.38;;;;;;;1.15;91.49;95453.91;5029780;28;20119;-76
2023/03/17 02:14:02;;;;;;;16.83;9.65;;;;;;;0.60;90.85;95355.34;5027015;28;20086;-79
2023/03/17 02:16:28;;;;;;;17.55;10.13;;;;;;;1.21;90.59;95444.47;5029872;28;20410;-79
2023/03/17 02:18:54;;;;;;;16.27;10.10;;;;;;;1.60;90.59;95459.13;5030556;28;20048;-79
2023/03/17 02:21:45;;;;;;;16.35;9.68;;;;;;;1.63;89.56;95461.28;5029926;28;20025;-79
2023/03/17 02:24:22;;;;;;;14.35;9.15;;;;;;;1.40;89.98;95459.22;5028453;28;20037;-79
2023/03/17 02:26:50;;;;;;;15.27;9.38;;;;;;;0.56;89.96;95344.50;5028397;28;20034;-79
2023/03/17 02:29:16;;;;;;;14.55;9.90;;;;;;;0.43;90.13;95326.31;5028835;28;20041;-79
2023/03/17 02:31:43;;;;;;;20.17;9.30;;;;;;;0.91;89.78;95388.53;5011760;28;20125;-79
2023/03/17 02:34:09;;;;;;;15.88;9.43;;;;;;;1.01;89.70;95376.63;5028363;28;20037;-79
2023/03/17 02:36:34;;;;;;;15.00;9.88;;;;;;;1.72;89.25;95470.50;5029762;28;20048;-79
2023/03/17 02:39:00;;;;;;;16.13;8.93;;;;;;;0.82;88.08;95332.34;5028634;28;20034;-79
2023/03/17 02:41:26;;;;;;;11.93;8.68;;;;;;;1.13;88.13;95390.63;5030462;28;20033;-78
2023/03/17 02:43:52;;;;;;;16.70;9.07;;;;;;;1.27;87.98;95420.09;5014455;28;20503;-78
2023/03/17 02:46:18;;;;;;;13.13;8.32;;;;;;;0.72;88.78;95377.97;5034130;28;20034;-80
2023/03/17 02:48:45;;;;;;;11.98;8.60;;;;;;;1.00;89.89;95429.84;5032388;28;20541;-80
2023/03/17 02:51:10;;;;;;;13.82;8.60;;;;;;;1.09;89.20;95448.72;5033739;28;20037;-77
2023/03/17 02:53:36;;;;;;;14.88;9.13;;;;;;;1.39;89.16;95494.19;5033615;28;20037;-80
2023/03/17 02:56:02;;;;;;;12.82;8.10;;;;;;;0.76;89.54;95402.63;5033462;28;20040;-80
2023/03/17 02:58:27;;;;;;;14.13;8.63;;;;;;;0.50;89.91;95354.97;5033358;28;20030;-80
2023/03/17 03:00:53;;;;;;;14.32;8.75;;;;;;;0.92;90.10;95434.50;5033376;28;20405;-80
2023/03/17 03:03:18;;;;;;;10.82;7.43;;;;;;;1.11;89.68;95457.16;5033456;28;20037;-80
2023/03/17 03:05:44;;;;;;;12.85;8.20;;;;;;;1.20;89.58;95461.13;5015732;28;20068;-80
2023/03/17 03:08:10;;;;;;;12.98;8.45;;;;;;;1.44;89.20;95488.34;5033453;28;20128;-80
2023/03/17 03:10:35;;;;;;;13.27;8.73;;;;;;;0.86;89.18;95419.69;5015518;28;20045;-80
2023/03/17 03:13:01;;;;;;;14.50;9.23;;;;;;;1.32;89.60;95497.84;5033752;28;20042;-80
2023/03/17 03:15:26;;;;;;;12.43;8.23;;;;;;;0.91;89.74;95422.50;5031978;28;20033;-80
2023/03/17 03:17:51;;;;;;;19.85;8.95;;;;;;;0.98;89.33;95429.28;5033634;28;20115;-80
2023/03/17 03:20:18;;;;;;;14.15;8.65;;;;;;;0.47;89.29;95376.25;5031867;28;20411;-80
2023/03/17 03:22:43;;;;;;;12.82;8.32;;;;;;;1.02;89.90;95506.22;5033388;28;20041;-80
2023/03/17 03:25:09;;;;;;;13.07;8.45;;;;;;;0.60;90.17;95450.09;5015413;28;20049;-79
2023/03/17 03:27:34;;;;;;;14.35;8.90;;;;;;;0.51;91.03;95442.69;5033399;28;20037;-80
2023/03/17 03:30:00;;;;;;;12.65;8.85;;;;;;;0.70;90.54;95447.84;5032919;28;20096;-79
2023/03/17 03:32:26;;;;;;;15.65;8.88;;;;;;;1.13;90.14;95515.22;5031353;28;20497;-80
2023/03/17 03:34:52;;;;;;;15.35;9.82;;;;;;;0.70;89.87;95458.28;5033211;28;20039;-80
2023/03/17 03:37:18;;;;;;;17.02;9.88;;;;;;;0.70;90.23;95445.25;5015335;28;20037;-80
2023/03/17 03:39:43;;;;;;;13.20;9.25;;;;;;;0.66;90.06;95407.50;5031613;28;20133;-80
2023/03/17 03:42:09;;;;;;;14.75;9.63;;;;;;;1.55;89.33;95521.66;5032851;28;20095;-80
2023/03/17 03:44:34;;;;;;;14.48;9.73;;;;;;;1.35;88.09;95518.34;5031367;28;20120;-79
2023/03/17 03:47:00;;;;;;;14.82;9.73;;;;;;;0.74;89.05;95448.25;5031295;28;20089;-80
2023/03/17 03:49:26;;;;;;;14.32;9.00;;;;;;;1.17;89.66;95524.22;5015027;28;20034;-80
2023/03/17 03:51:51;;;;;;;14.55;9.30;;;;;;;0.64;90.03;95442.66;5031541;28;20038;-80
2023/03/17 03:54:16;;;;;;;13.77;9.48;;;;;;;0.87;89.91;95486.56;5030136;28;20198;-80
2023/03/17 03:56:42;;;;;;;16.73;10.15;;;;;;;0.88;90.17;95472.50;5032497;28;20120;-80
2023/03/17 03:59:08;;;;;;;16.33;9.48;;;;;;;1.19;89.49;95518.81;5031186;28;20037;-79
2023/03/17 04:01:34;;;;;;;16.13;9.82;;;;;;;1.03;89.10;95460.00;5032467;28;20044;-79
2023/03/17 04:04:00;;;;;;;16.10;8.98;;;;;;;0.73;88.02;95412.72;5032068;28;20128;-79
2023/03/17 04:06:26;;;;;;;14.98;9.07;;;;;;;1.54;88.44;95528.69;5031039;28;20130;-79
2023/03/17 04:08:51;;;;;;;15.40;9.65;;;;;;;1.27;87.70;95495.06;5030811;28;20037;-79
2023/03/17 04:11:17;;;;;;;14.48;9.00;;;;;;;1.12;87.59;95487.50;5031978;28;20046;-79
2023/03/17 04:13:42;;;;;;;13.52;8.32;;;;;;;1.54;88.22;95544.38;5032427;28;20048;-79
2023/03/17 04:16:08;;;;;;;14.68;8.98;;;;;;;1.48;88.60;95545.22;5031814;28;20120;-79
2023/03/17 04:18:34;;;;;;;15.20;9.38;;;;;;;1.53;87.90;95550.63;5030668;28;20033;-79
2023/03/17 04:21:00;;;;;;;13.75;8.50;;;;;;;1.53;88.49;95555.03;5030743;28;20075;-79
2023/03/17 04:23:27;;;;;;;15.00;9.27;;;;;;;1.27;88.76;95552.56;5031703;28;20029;-79
2023/03/17 04:25:52;;;;;;;15.30;8.63;;;;;;;0.15;88.43;95398.81;5032194;28;20056;-79
2023/03/17 04:28:19;;;;;;;13.82;8.98;;;;;;;1.13;88.85;95559.63;5031910;28;20033;-79
2023/03/17 04:30:45;;;;;;;12.68;8.48;;;;;;;1.06;89.00;95548.41;5032101;28;20045;-79
2023/03/17 04:33:10;;;;;;;16.17;9.05;;;;;;;0.73;89.07;95510.09;5012884;28;20053;-79
2023/03/17 04:35:36;;;;;;;15.25;9.50;;;;;;;1.21;88.88;95553.38;5031640;28;20068;-79
2023/03/17 04:38:01;;;;;;;13.57;8.63;;;;;;;0.57;88.76;95449.69;5031495;28;20458;-79
2023/03/17 04:40:27;;;;;;;16.92;9.38;;;;;;;0.86;89.40;95490.97;5030111;28;20087;-79
2023/03/17 04:42:52;;;;;;;17.00;9.68;;;;;;;1.01;89.32;95490.72;5031692;28;20037;-79
2023/03/17 04:45:18;;;;;;;12.70;8.77;;;;;;;1.48;88.93;95545.22;5031059;28;20071;-79
2023/03/17 04:47:45;;;;;;;12.38;8.25;;;;;;;0.70;87.71;95441.81;5029696;28;20033;-79
2023/03/17 04:50:10;;;;;;;11.77;7.85;;;;;;;1.60;87.68;95566.31;5031235;28;20041;-79
2023/03/17 04:52:37;;;;;;;15.23;9.02;;;;;;;1.59;87.23;95550.81;5029612;28;20033;-79
2023/03/17 04:55:04;;;;;;;12.07;8.30;;;;;;;1.81;87.45;95575.66;5031194;28;20041;-79
2023/03/17 04:57:29;;;;;;;12.68;8.05;;;;;;;1.39;86.55;95515.09;5030014;28;20030;-79
2023/03/17 04:59:56;;;;;;;15.05;7.75;;;;;;;1.93;86.34;95584.44;5005033;28;20491;-79
2023/03/17 05:02:22;;;;;;;14.95;9.25;;;;;;;1.67;85.79;95537.50;5028485;28;20068;-79
2023/03/17 05:04:47;;;;;;;12.90;8.00;;;;;;;0.92;85.12;95456.22;5027338;28;20535;-78
2023/03/17 05:07:13;;;;;;;13.63;8.18;;;;;;;1.38;85.53;95517.91;5023367;28;20404;-79
2023/03/17 05:09:38;;;;;;;12.05;7.93;;;;;;;1.40;85.30;95542.84;5030818;28;20048;-78
2023/03/17 05:12:05;;;;;;;15.95;10.57;;;;;;;1.79;85.36;95588.13;5024234;28;20716;-78
2023/03/17 05:14:30;;;;;;;15.63;7.63;;;;;;;1.61;84.28;95599.25;5008698;28;20033;-78
2023/03/17 05:16:56;;;;;;;14.65;8.40;;;;;;;1.19;84.81;95556.19;5025016;28;20040;-79
2023/03/17 05:19:21;;;;;;;12.32;8.20;;;;;;;1.40;85.20;95561.13;5005565;28;20989;-78
2023/03/17 05:21:47;;;;;;;14.50;8.45;;;;;;;1.40;85.66;95589.09;5014926;28;20025;-77
2023/03/17 05:24:12;;;;;;;19.20;9.80;;;;;;;0.35;85.62;95416.03;5019629;28;20124;-78
2023/03/17 05:26:39;;;;;;;15.23;9.40;;;;;;;1.46;85.23;95568.16;5018697;28;20037;-78
2023/03/17 05:29:05;;;;;;;12.35;7.70;;;;;;;1.32;85.07;95563.97;5017891;28;20132;-79
2023/03/17 05:31:31;;;;;;;15.38;8.85;;;;;;;1.15;85.91;95529.66;5010264;28;20029;-77
2023/03/17 05:33:57;;;;;;;15.70;8.88;;;;;;;1.23;84.62;95531.25;5021256;28;20050;-78
2023/03/17 05:36:22;;;;;;;13.07;8.18;;;;;;;1.68;84.20;95620.94;5014932;28;20129;-79
2023/03/17 05:38:48;;;;;;;16.08;8.40;;;;;;;1.58;85.48;95585.81;5021762;28;20065;-78
2023/03/17 05:41:13;;;;;;;13.55;9.07;;;;;;;1.83;84.85;95592.72;5020817;28;20044;-78
2023/03/17 05:43:38;;;;;;;16.08;8.98;;;;;;;1.55;84.82;95550.41;5019875;28;20175;-79
2023/03/17 05:46:04;;;;;;;14.60;7.88;;;;;;;1.94;85.04;95606.97;5019940;28;20041;-78
2023/03/17 05:48:30;;;;;;;17.25;8.07;;;;;;;1.21;84.02;95501.13;5019375;28;20036;-79
2023/03/17 05:50:56;;;;;;;13.00;8.68;;;;;;;1.37;84.75;95521.56;5020050;28;20049;-79
2023/03/17 05:53:22;;;;;;;13.95;8.55;;;;;;;1.39;84.75;95567.38;5020698;28;20076;-80
2023/03/17 05:55:47;;;;;;;14.43;9.63;;;;;;;1.47;85.15;95582.81;5019867;28;20040;-79
2023/03/17 05:58:14;;;;;;;13.55;8.60;;;;;;;1.47;84.77;95555.88;5019003;28;20486;-80
2023/03/17 06:00:40;;;;;;;13.77;9.20;;;;;;;1.79;85.45;95643.03;5016306;28;20044;-79
2023/03/17 06:03:06;;;;;;;15.75;9.52;;;;;;;1.34;86.82;95610.81;5013084;28;20030;-79
2023/03/17 06:05:33;;;;;;;18.20;9.70;;;;;;;1.38;86.63;95633.72;5015069;28;20765;-79
2023/03/17 06:07:58;;;;;;;16.33;9.43;;;;;;;0.91;86.71;95550.44;4998913;28;20511;-81
2023/03/17 06:10:24;;;;;;;15.23;9.73;;;;;;;1.50;86.45;95631.28;5009785;28;20076;-80
2023/03/17 06:12:49;;;;;;;19.27;11.18;;;;;;;0.83;86.32;95554.06;4991974;28;20492;-80
2023/03/17 06:15:15;;;;;;;18.35;11.40;;;;;;;0.85;86.86;95559.88;4995599;28;20727;-81
2023/03/17 06:17:44;;;;;;;19.00;11.27;;;;;;;1.26;87.02;95571.84;5012312;28;20079;-89
2023/03/17 06:20:10;;;;;;;18.48;10.63;;;;;;;2.07;86.63;95666.25;4995097;28;20030;-86
2023/03/17 06:22:36;;;;;;;15.07;9.65;;;;;;;1.27;85.50;95544.72;4982202;28;20037;-80
2023/03/17 06:25:03;;;;;;;23.77;11.52;;;;;;;1.23;84.78;95541.69;5010055;28;20749;-80
2023/03/17 06:27:28;;;;;;;18.77;11.23;;;;;;;1.26;84.66;95532.66;5012331;28;20141;-81
2023/03/17 06:29:54;;;;;;;18.60;11.55;;;;;;;1.93;84.18;95610.59;5000758;28;20808;-80
2023/03/17 06:32:19;;;;;;;19.95;12.23;;;;;;;2.50;83.66;95682.94;5011451;28;20053;-80
2023/03/17 06:34:45;;;;;;;20.48;11.07;;;;;;;2.22;82.98;95688.53;5001092;28;20041;-80
2023/03/17 06:37:11;;;;;;;19.70;11.88;;;;;;;1.51;84.02;95612.78;5012264;28;20095;-81
2023/03/17 06:39:36;;;;;;;18.85;11.95;;;;;;;1.28;84.75;95601.19;4989461;28;20046;-81
2023/03/17 06:42:02;;;;;;;16.77;10.13;;;;;;;1.32;84.77;95595.34;5011999;28;20044;-80
2023/03/17 06:44:28;;;;;;;16.25;10.60;;;;;;;1.96;85.05;95690.47;5012443;28;20103;-79
2023/03/17 06:46:54;;;;;;;19.80;11.77;;;;;;;1.88;84.77;95641.81;4995518;28;20558;-80
2023/03/17 06:49:20;;;;;;;21.92;11.38;;;;;;;1.74;84.85;95608.88;5012948;28;20033;-80
2023/03/17 06:51:45;;;;;;;15.55;11.05;;;;;;;1.81;85.55;95605.22;5016627;28;20041;-80
2023/03/17 06:54:11;;;;;;;27.05;12.35;;;;;;;2.14;84.30;95636.44;5015810;28;20132;-80
2023/03/17 06:56:36;;;;;;;19.33;10.98;;;;;;;2.55;82.49;95693.59;5018454;28;20142;-81
2023/03/17 06:59:03;;;;;;;17.13;9.98;;;;;;;2.51;83.07;95639.25;5014170;28;20518;-80
2023/03/17 07:01:29;;;;;;;18.83;10.45;;;;;;;2.52;82.53;95619.88;4998566;28;20033;-79
2023/03/17 07:03:55;;;;;;;15.68;10.05;;;;;;;2.36;81.17;95636.13;4983321;28;20681;-80
2023/03/17 07:06:22;;;;;;;16.27;9.68;;;;;;;2.50;80.58;95700.47;5006899;28;20037;-78
2023/03/17 07:08:48;;;;;;;17.00;10.73;;;;;;;2.08;81.81;95605.06;5006206;28;20476;-79
2023/03/17 07:11:13;;;;;;;14.15;9.13;;;;;;;1.89;82.32;95542.22;4987966;28;20982;-79
2023/03/17 07:13:40;;;;;;;16.83;7.70;;;;;;;2.78;82.02;95673.91;5009611;28;20048;-79
2023/03/17 07:16:05;;;;;;;9.90;6.63;;;;;;;2.93;80.18;95669.94;5005275;28;20095;-81
2023/03/17 07:18:32;;;;;;;13.75;7.75;;;;;;;2.31;80.26;95606.13;5010650;28;20044;-80
2023/03/17 07:21:01;;;;;;;15.48;8.57;;;;;;;2.40;79.97;95585.75;5012086;28;20124;-81
2023/03/17 07:23:27;;;;;;;16.67;9.80;;;;;;;2.81;80.73;95645.47;4998208;28;20044;-80
2023/03/17 07:25:53;;;;;;;19.73;7.97;;;;;;;3.02;79.50;95683.59;5012946;28;20034;-81
2023/03/17 07:28:20;;;;;;;18.92;9.32;;;;;;;3.17;79.83;95699.00;5017011;28;20041;-80
2023/03/17 07:30:48;;;;;;;17.13;9.30;;;;;;;2.80;81.14;95638.63;5020066;28;20107;-80
2023/03/17 07:33:15;;;;;;;14.55;7.78;;;;;;;3.45;80.96;95710.63;5004697;28;20546;-81
2023/03/17 07:35:41;;;;;;;15.00;8.13;;;;;;;2.86;78.40;95647.44;5025455;28;20640;-81
2023/03/17 07:38:06;;;;;;;15.38;7.95;;;;;;;2.68;78.46;95643.72;5020558;28;20538;-81
2023/03/17 07:40:33;;;;;;;15.30;8.07;;;;;;;2.45;79.26;95574.63;5022482;28;20056;-79
2023/03/17 07:42:58;;;;;;;16.63;9.27;;;;;;;1.53;79.21;95421.72;5022457;28;20050;-81
2023/03/17 07:45:23;;;;;;;16.10;9.00;;;;;;;3.31;79.37;95719.63;5005887;28;20037;-80
2023/03/17 07:47:49;;;;;;;15.10;9.52;;;;;;;2.87;79.47;95651.66;5018621;28;20117;-79
2023/03/17 07:50:15;;;;;;;18.10;10.68;;;;;;;3.03;79.93;95661.63;5019562;28;20057;-79
2023/03/17 07:52:41;;;;;;;14.82;9.73;;;;;;;3.01;78.19;95669.69;5001166;28;20053;-81
2023/03/17 07:55:09;;;;;;;16.42;9.65;;;;;;;3.16;79.08;95723.59;5017616;28;20171;-80
2023/03/17 07:57:35;;;;;;;21.33;9.63;;;;;;;2.80;79.42;95625.53;5015994;28;20029;-80
2023/03/17 08:00:00;;;;;;;21.98;10.20;;;;;;;2.70;78.56;95618.16;5002800;28;20033;-83
2023/03/17 08:02:26;;;;;;;17.42;10.45;;;;;;;3.64;78.52;95719.34;5020481;28;20475;-81
2023/03/17 08:04:52;;;;;;;20.80;9.07;;;;;;;3.70;79.41;95701.94;5019726;28;20181;-88
2023/03/17 08:07:21;;;;;;;11.60;6.75;;;;;;;3.22;76.86;95631.00;5005403;28;20333;-83
2023/03/17 08:09:47;;;;;;;15.43;7.40;;;;;;;3.72;77.31;95700.69;5016932;28;20362;-81
2023/03/17 08:12:13;;;;;;;16.63;7.97;;;;;;;3.72;77.34;95678.91;5014077;28;21095;-80
2023/03/17 08:14:40;;;;;;;21.00;8.48;;;;;;;3.61;76.51;95633.22;5006472;28;20597;-79
2023/03/17 08:17:06;;;;;;;14.43;7.00;;;;;;;4.35;75.21;95728.47;5015900;28;20083;-80
2023/03/17 08:19:31;;;;;;;17.73;7.68;;;;;;;4.10;74.20;95725.94;5019977;28;20456;-81
2023/03/17 08:21:57;;;;;;;11.82;7.50;;;;;;;4.10;74.35;95729.34;5001593;28;20044;-81
2023/03/17 08:24:22;;;;;;;17.75;7.68;;;;;;;3.83;73.99;95696.53;5017826;28;20660;-81
2023/03/17 08:26:48;;;;;;;16.83;8.48;;;;;;;4.01;74.05;95695.75;5018049;28;20470;-79
2023/03/17 08:29:14;;;;;;;12.13;7.28;;;;;;;4.07;72.79;95707.97;4998760;28;20041;-81
2023/03/17 08:31:40;;;;;;;21.38;8.27;;;;;;;4.15;74.73;95698.00;5016334;28;20046;-81
2023/03/17 08:34:07;;;;;;;15.05;9.02;;;;;;;4.31;74.67;95729.91;4998944;28;20029;-81
2023/03/17 08:36:33;;;;;;;20.95;9.55;;;;;;;4.04;74.77;95651.50;5013316;28;20563;-82
2023/03/17 08:38:58;;;;;;;25.20;9.18;;;;;;;3.69;75.09;95617.19;5001004;28;20028;-81
2023/03/17 08:41:26;;;;;;;24.52;10.65;;;;;;;4.26;74.52;95699.09;5014904;28;20071;-80
2023/03/17 08:43:53;;;;;;;26.02;9.48;;;;;;;3.63;74.61;95610.19;4997632;28;20631;-80
2023/03/17 08:46:23;;;;;;;20.40;9.07;;;;;;;3.62;73.07;95597.28;5011712;28;20443;-80
2023/03/17 08:48:50;;;;;;;17.30;7.90;;;;;;;4.82;72.79;95727.63;5016294;28;20021;-81
2023/03/17 08:51:24;;;;;;;17.63;8.65;;;;;;;4.66;72.48;95691.44;5010362;28;20111;-81
2023/03/17 08:53:50;;;;;;;24.67;9.82;;;;;;;3.98;71.95;95580.69;5003350;28;20690;-79
2023/03/17 08:56:16;;;;;;;15.38;9.30;;;;;;;4.59;72.16;95652.16;4991771;28;20044;-81
2023/03/17 08:58:42;;;;;;;16.42;8.82;;;;;;;4.22;70.45;95638.31;5013770;28;20026;-80
2023/03/17 09:01:09;;;;;;;17.95;8.52;;;;;;;4.71;71.16;95669.78;5005206;28;20767;-79
2023/03/17 09:03:37;;;;;;;31.00;9.40;;;;;;;5.11;70.83;95725.19;5004192;28;20050;-78
2023/03/17 09:06:05;;;;;;;21.33;9.60;;;;;;;4.95;72.10;95681.97;4991771;28;20721;-79
2023/03/17 09:08:31;;;;;;;30.02;9.63;;;;;;;5.19;71.02;95704.59;4997168;28;20522;-79
2023/03/17 09:10:57;;;;;;;12.75;7.40;;;;;;;5.25;69.53;95731.84;4996313;28;20041;-78
2023/03/17 09:13:22;;;;;;;18.33;7.30;;;;;;;5.32;70.75;95730.72;5015403;28;20041;-80
2023/03/17 09:15:49;;;;;;;17.75;7.13;;;;;;;5.47;70.40;95711.84;5014600;28;20700;-79
2023/03/17 09:18:15;;;;;;;16.15;7.72;;;;;;;5.51;69.83;95735.88;5014384;28;20076;-79
2023/03/17 09:20:40;;;;;;;25.77;8.52;;;;;;;4.88;67.82;95647.88;5006276;28;20056;-80
2023/03/17 09:23:08;;;;;;;15.23;8.02;;;;;;;5.66;69.51;95736.22;5013389;28;20450;-79
2023/03/17 09:25:35;;;;;;;24.05;9.73;;;;;;;5.19;70.27;95661.75;5014815;28;20466;-79
2023/03/17 09:28:01;;;;;;;27.13;9.95;;;;;;;5.89;70.05;95732.81;5014110;28;20029;-79
2023/03/17 09:30:26;;;;;;;29.05;11.13;;;;;;;5.80;69.05;95730.47;5013749;28;20036;-79
2023/03/17 09:32:54;;;;;;;22.60;9.18;;;;;;;5.52;66.97;95693.53;5015671;28;20049;-79
2023/03/17 09:35:21;;;;;;;22.08;9.52;;;;;;;4.92;67.26;95606.19;5012406;28;20461;-80
2023/03/17 09:37:47;;;;;;;21.27;9.32;;;;;;;5.24;67.91;95646.09;5019889;28;20565;-80
2023/03/17 09:40:18;;;;;;;21.20;8.77;;;;;;;5.80;67.72;95714.69;5010868;28;20476;-81
2023/03/17 09:43:22;;;;;;;16.85;9.07;;;;;;;5.76;67.24;95670.66;4997122;28;20035;-81
2023/03/17 09:45:48;;;;;;;28.10;10.60;;;;;;;5.09;68.94;95574.75;4997113;28;20052;-80
2023/03/17 09:48:45;;;;;;;21.70;8.70;;;;;;;6.05;67.37;95738.16;4997537;28;20458;-82
2023/03/17 09:51:13;;;;;;;21.98;8.48;;;;;;;5.85;66.60;95745.59;5019002;28;20033;-80
2023/03/17 09:54:00;;;;;;;11.57;7.25;;;;;;;5.10;65.29;95628.94;5009479;28;20108;-81
2023/03/17 09:56:29;;;;;;;17.50;7.75;;;;;;;5.22;64.70;95630.53;5005018;28;20083;-80
2023/03/17 09:59:28;;;;;;;26.70;9.80;;;;;;;5.67;64.40;95693.88;5018667;28;20026;-81
2023/03/17 10:01:54;;;;;;;11.90;6.93;;;;;;;5.39;66.66;95696.41;5011812;28;20041;-79
2023/03/17 10:04:20;;;;;;;16.05;7.70;;;;;;;5.62;67.27;95745.59;5010474;28;20378;-81
2023/03/17 10:06:46;;;;;;;15.82;8.02;;;;;;;5.66;66.29;95750.16;5015031;28;20082;-80
2023/03/17 10:09:51;;;;;;;14.70;7.25;;;;;;;5.44;65.00;95749.94;5011519;28;20025;-81
2023/03/17 10:12:41;;;;;;;24.80;8.15;;;;;;;5.89;64.91;95754.66;5008387;28;20140;-81
2023/03/17 10:15:47;;;;;;;13.10;6.40;;;;;;;4.54;65.27;95589.00;4996498;28;20597;-81
2023/03/17 10:18:14;;;;;;;12.13;5.82;;;;;;;5.34;62.77;95652.38;5018204;28;20159;-81
2023/03/17 10:20:58;;;;;;;15.35;6.63;;;;;;;5.47;62.71;95661.06;5012110;28;20041;-82
2023/03/17 10:23:29;;;;;;;10.85;5.65;;;;;;;5.68;60.75;95694.69;5013858;28;20072;-80
2023/03/17 10:25:59;;;;;;;13.60;5.70;;;;;;;5.50;60.96;95677.19;5015914;28;20040;-80
2023/03/17 10:28:31;;;;;;;13.27;5.85;;;;;;;5.39;61.64;95702.47;5018241;28;20034;-80
2023/03/17 10:31:35;;;;;;;16.08;5.25;;;;;;;5.54;61.04;95735.41;5019828;28;20056;-82
2023/03/17 10:34:16;;;;;;;20.83;6.15;;;;;;;5.69;62.17;95697.09;5005179;28;20072;-79
2023/03/17 10:36:49;;;;;;;14.52;6.97;;;;;;;5.48;63.99;95676.63;5012703;28;20041;-79
2023/03/17 10:39:21;;;;;;;18.85;8.23;;;;;;;5.58;64.53;95662.88;5012417;28;20498;-78
2023/03/17 10:41:52;;;;;;;10.85;5.88;;;;;;;6.11;62.25;95737.25;5016383;28;20140;-79
2023/03/17 10:44:33;;;;;;;13.70;5.10;;;;;;;5.89;62.32;95667.78;5017735;28;20316;-78
2023/03/17 10:46:59;;;;;;;11.13;6.03;;;;;;;5.85;60.48;95650.03;5015128;28;20194;-81
2023/03/17 10:49:25;;;;;;;14.82;6.07;;;;;;;5.86;62.11;95623.50;4996547;28;20044;-79
2023/03/17 10:51:52;;;;;;;17.15;5.57;;;;;;;6.66;61.63;95728.03;5000960;28;20037;-80
2023/03/17 10:54:19;;;;;;;13.48;5.47;;;;;;;5.77;62.09;95609.09;5019389;28;20502;-80
2023/03/17 10:56:47;;;;;;;19.13;5.78;;;;;;;6.36;61.97;95681.66;4984605;28;20060;-81
2023/03/17 10:59:24;;;;;;;15.30;5.28;;;;;;;6.74;61.56;95709.22;5001159;28;20033;-81
2023/03/17 11:01:56;;;;;;;19.27;6.05;;;;;;;6.36;62.41;95647.41;5003737;28;20100;-80
2023/03/17 11:04:32;;;;;;;19.15;5.38;;;;;;;7.05;62.44;95695.53;5019671;28;20025;-80
2023/03/17 11:07:04;;;;;;;11.93;4.93;;;;;;;7.01;58.43;95688.34;5018865;28;20037;-80
2023/03/17 11:09:34;;;;;;;13.25;5.28;;;;;;;7.08;58.01;95689.00;5014718;28;20045;-80
2023/03/17 11:12:25;;;;;;;9.63;5.85;;;;;;;6.88;59.19;95642.78;5016646;28;20091;-78
2023/03/17 11:14:58;;;;;;;12.70;5.38;;;;;;;6.50;57.08;95634.72;5014047;28;20030;-79
2023/03/17 11:17:49;;;;;;;9.68;5.20;;;;;;;6.34;56.55;95622.31;5009876;28;20625;-78
2023/03/17 11:20:17;;;;;;;13.68;6.50;;;;;;;6.93;60.43;95698.25;5005134;28;20029;-79
2023/03/17 11:22:53;;;;;;;24.00;6.80;;;;;;;7.15;60.92;95702.81;5012556;28;20267;-80
2023/03/17 11:25:19;;;;;;;20.58;6.68;;;;;;;7.25;60.06;95697.69;5005401;28;20034;-80
2023/03/17 11:28:10;;;;;;;11.88;6.00;;;;;;;7.67;60.91;95695.44;5011932;28;20239;-78
2023/03/17 11:30:41;;;;;;;11.45;4.80;;;;;;;7.09;57.96;95595.66;4985524;28;20888;-78
2023/03/17 11:33:32;;;;;;;13.07;5.10;;;;;;;7.85;54.69;95694.38;4985782;28;20507;-79
2023/03/17 11:36:35;;;;;;;18.40;5.97;;;;;;;7.79;56.28;95684.78;4996445;28;20049;-80